createdAt,value
2023-05-21T00:00:11.957Z,101154.97
2023-05-21T00:02:15.334Z,101156.81
2023-05-21T00:04:17.662Z,101160.34
2023-05-21T00:06:20.809Z,101166.56
2023-05-21T00:08:23.615Z,101152.31
2023-05-21T00:10:25.511Z,101155.97
2023-05-21T00:12:28.092Z,101162.19
2023-05-21T00:14:29.797Z,101156.81
2023-05-21T00:16:31.424Z,101150.63
2023-05-21T00:18:34.279Z,101153.16
2023-05-21T00:20:37.130Z,101151.47
2023-05-21T00:22:40.236Z,101148.78
2023-05-21T00:24:41.896Z,101145.25
2023-05-21T00:26:43.535Z,101149.75
2023-05-21T00:28:45.209Z,101146.22
2023-05-21T00:30:47.273Z,101147.94
2023-05-21T00:32:49.046Z,101146.22
2023-05-21T00:34:50.877Z,101147.06
2023-05-21T00:36:53.638Z,101149.75
2023-05-21T00:38:55.331Z,101146.22
2023-05-21T00:40:56.997Z,101134.53
2023-05-21T00:42:58.667Z,101129.16
2023-05-21T00:45:00.587Z,101124.63
2023-05-21T00:47:02.680Z,101133.53
2023-05-21T00:49:04.422Z,101131.84
2023-05-21T00:51:06.726Z,101133.66
2023-05-21T00:53:10.008Z,101122.91
2023-05-21T00:55:11.819Z,101117.56
2023-05-21T00:57:14.155Z,101119.38
2023-05-21T00:59:16.759Z,101123.78
2023-05-21T01:01:19.452Z,101120.47
2023-05-21T01:03:23.282Z,101119.50
2023-05-21T01:05:25.062Z,101115.97
2023-05-21T01:07:26.722Z,101117.78
2023-05-21T01:09:28.531Z,101125.81
2023-05-21T01:11:38.918Z,101121.34
2023-05-21T01:13:42.085Z,101115.09
2023-05-21T01:15:44.498Z,101107.06
2023-05-21T01:17:46.996Z,101116.94
2023-05-21T01:19:48.810Z,101111.56
2023-05-21T01:21:53.885Z,101114.25
2023-05-21T01:23:55.600Z,101116.94
2023-05-21T01:25:57.249Z,101111.72
2023-05-21T01:27:58.935Z,101114.53
2023-05-21T01:30:00.564Z,101121.59
2023-05-21T01:32:09.763Z,101117.19
2023-05-21T01:34:12.533Z,101115.38
2023-05-21T01:36:24.071Z,101113.56
2023-05-21T01:38:32.364Z,101120.88
2023-05-21T01:40:53.361Z,101113.81
2023-05-21T01:42:55.375Z,101116.75
2023-05-21T01:44:57.453Z,101115.03
2023-05-21T01:46:59.792Z,101119.56
2023-05-21T01:49:01.774Z,101117.88
2023-05-21T01:51:05.399Z,101118.72
2023-05-21T01:53:07.232Z,101119.56
2023-05-21T01:55:09.155Z,101119.44
2023-05-21T01:57:10.800Z,101117.59
2023-05-21T01:59:12.424Z,101116.75
2023-05-21T02:01:14.172Z,101108.72
2023-05-21T02:03:16.426Z,101115.91
2023-05-21T02:05:18.386Z,101122.13
2023-05-21T02:07:19.992Z,101121.28
2023-05-21T02:09:21.548Z,101123.22
2023-05-21T02:11:23.641Z,101120.81
2023-05-21T02:13:26.709Z,101117.13
2023-05-21T02:15:28.756Z,101115.59
2023-05-21T02:17:33.690Z,101111.06
2023-05-21T02:19:35.424Z,101110.09
2023-05-21T02:21:37.164Z,101115.44
2023-05-21T02:23:38.875Z,101110.22
2023-05-21T02:25:40.428Z,101117.28
2023-05-21T02:27:43.093Z,101119.97
2023-05-21T02:29:44.747Z,101119.13
2023-05-21T02:31:46.382Z,101117.41
2023-05-21T02:33:47.989Z,101122.75
2023-05-21T02:35:49.581Z,101126.31
2023-05-21T02:37:51.715Z,101123.75
2023-05-21T02:39:56.768Z,101128.28
2023-05-21T02:41:58.499Z,101129.25
2023-05-21T02:44:00.146Z,101117.66
2023-05-21T02:46:01.830Z,101127.44
2023-05-21T02:48:03.736Z,101123.03
2023-05-21T02:50:07.329Z,101116.97
2023-05-21T02:52:08.947Z,101129.25
2023-05-21T02:54:10.566Z,101125.69
2023-05-21T02:56:12.559Z,101121.34
2023-05-21T02:58:15.005Z,101121.34
2023-05-21T03:00:16.820Z,101117.91
2023-05-21T03:02:18.502Z,101116.13
2023-05-21T03:04:22.917Z,101111.00
2023-05-21T03:06:24.550Z,101116.63
2023-05-21T03:08:26.657Z,101115.06
2023-05-21T03:10:28.282Z,101124.09
2023-05-21T03:12:30.057Z,101120.41
2023-05-21T03:14:32.541Z,101123.94
2023-05-21T03:16:34.724Z,101128.31
2023-05-21T03:18:36.543Z,101136.50
2023-05-21T03:20:43.519Z,101139.28
2023-05-21T03:22:45.873Z,101128.56
2023-05-21T03:24:47.590Z,101128.56
2023-05-21T03:26:50.333Z,101131.53
2023-05-21T03:28:52.004Z,101132.50
2023-05-21T03:30:54.726Z,101132.66
2023-05-21T03:32:56.500Z,101146.03
2023-05-21T03:34:58.458Z,101146.88
2023-05-21T03:37:00.492Z,101141.53
2023-05-21T03:39:02.158Z,101136.16
2023-05-21T03:41:03.801Z,101130.91
2023-05-21T03:43:05.451Z,101128.13
2023-05-21T03:45:07.964Z,101128.97
2023-05-21T03:47:09.690Z,101125.44
2023-05-21T03:49:11.534Z,101133.47
2023-05-21T03:51:13.317Z,101132.75
2023-05-21T03:53:15.078Z,101141.53
2023-05-21T03:55:16.720Z,101144.31
2023-05-21T03:57:18.578Z,101145.31
2023-05-21T03:59:20.463Z,101143.63
2023-05-21T04:01:22.159Z,101142.78
2023-05-21T04:03:24.016Z,101141.78
2023-05-21T04:05:25.699Z,101141.78
2023-05-21T04:07:27.486Z,101139.09
2023-05-21T04:09:29.219Z,101140.94
2023-05-21T04:11:31.352Z,101149.81
2023-05-21T04:13:33.049Z,101156.03
2023-05-21T04:15:35.657Z,101152.34
2023-05-21T04:17:37.414Z,101156.03
2023-05-21T04:19:39.485Z,101162.22
2023-05-21T04:21:41.914Z,101158.84
2023-05-21T04:23:43.569Z,101157.88
2023-05-21T04:25:45.257Z,101155.19
2023-05-21T04:27:48.071Z,101157.97
2023-05-21T04:29:50.826Z,101158.84
2023-05-21T04:31:53.637Z,101161.53
2023-05-21T04:33:55.221Z,101158.97
2023-05-21T04:35:57.775Z,101167.00
2023-05-21T04:40:02.628Z,101173.22
2023-05-21T04:42:04.390Z,101173.34
2023-05-21T04:44:09.555Z,101176.03
2023-05-21T04:46:11.502Z,101169.81
2023-05-21T04:48:15.740Z,101173.59
2023-05-21T04:50:17.567Z,101173.47
2023-05-21T04:52:19.160Z,101174.34
2023-05-21T04:54:20.738Z,101168.09
2023-05-21T04:56:22.347Z,101172.63
2023-05-21T04:58:24.011Z,101172.50
2023-05-21T05:00:26.193Z,101177.03
2023-05-21T05:02:27.856Z,101177.03
2023-05-21T05:04:29.487Z,101174.44
2023-05-21T05:06:31.713Z,101166.66
2023-05-21T05:08:33.970Z,101166.66
2023-05-21T05:10:36.268Z,101169.34
2023-05-21T05:12:37.976Z,101167.66
2023-05-21T05:14:39.596Z,101170.34
2023-05-21T05:16:41.329Z,101162.41
2023-05-21T05:18:43.101Z,101172.16
2023-05-21T05:20:44.729Z,101158.63
2023-05-21T05:22:46.489Z,101160.47
2023-05-21T05:24:48.053Z,101162.16
2023-05-21T05:26:49.680Z,101168.34
2023-05-21T05:28:51.504Z,101172.63
2023-05-21T05:30:53.126Z,101170.78
2023-05-21T05:32:54.902Z,101170.78
2023-05-21T05:34:56.607Z,101168.97
2023-05-21T05:36:58.828Z,101169.09
2023-05-21T05:39:00.731Z,101168.25
2023-05-21T05:41:02.627Z,101171.91
2023-05-21T05:43:04.333Z,101166.66
2023-05-21T05:45:06.730Z,101171.03
2023-05-21T05:47:10.791Z,101164.13
2023-05-21T05:49:13.691Z,101174.09
2023-05-21T05:51:17.198Z,101168.59
2023-05-21T05:53:18.776Z,101178.38
2023-05-21T05:55:22.005Z,101173.00
2023-05-21T05:57:23.684Z,101168.59
2023-05-21T05:59:25.342Z,101170.34
2023-05-21T06:01:26.964Z,101169.50
2023-05-21T06:03:29.728Z,101173.00
2023-05-21T06:05:31.592Z,101178.47
2023-05-21T06:07:33.363Z,101177.63
2023-05-21T06:09:35.067Z,101174.34
2023-05-21T06:11:36.687Z,101169.75
2023-05-21T06:13:38.287Z,101173.25
2023-05-21T06:15:43.107Z,101181.56
2023-05-21T06:17:45.182Z,101182.53
2023-05-21T06:19:47.029Z,101173.50
2023-05-21T06:21:48.863Z,101167.16
2023-05-21T06:23:51.514Z,101168.16
2023-05-21T06:25:53.183Z,101168.25
2023-05-21T06:27:55.029Z,101165.84
2023-05-21T06:29:57.368Z,101166.72
2023-05-21T06:31:59.101Z,101165.97
2023-05-21T06:34:01.341Z,101174.88
2023-05-21T06:36:03.231Z,101172.44
2023-05-21T06:38:04.859Z,101179.63
2023-05-21T06:40:07.583Z,101181.47
2023-05-21T06:42:09.352Z,101178.78
2023-05-21T06:44:11.029Z,101172.56
2023-05-21T06:46:12.652Z,101174.28
2023-05-21T06:48:16.308Z,101170.75
2023-05-21T06:50:17.925Z,101175.97
2023-05-21T06:52:19.537Z,101172.69
2023-05-21T06:54:21.299Z,101187.03
2023-05-21T06:56:23.068Z,101173.91
2023-05-21T06:58:25.806Z,101178.16
2023-05-21T07:00:27.641Z,101173.53
2023-05-21T07:02:29.533Z,101173.44
2023-05-21T07:04:31.416Z,101170.75
2023-05-21T07:06:33.068Z,101180.63
2023-05-21T07:08:34.712Z,101172.44
2023-05-21T07:10:36.506Z,101174.41
2023-05-21T07:12:38.108Z,101172.44
2023-05-21T07:14:39.693Z,101174.16
2023-05-21T07:16:41.306Z,101175.38
2023-05-21T07:18:42.906Z,101175.38
2023-05-21T07:20:44.646Z,101176.09
2023-05-21T07:22:46.283Z,101169.91
2023-05-21T07:24:47.912Z,101184.13
2023-05-21T07:26:49.579Z,101183.41
2023-05-21T07:28:51.216Z,101188.97
2023-05-21T07:30:52.876Z,101189.97
2023-05-21T07:32:54.560Z,101190.94
2023-05-21T07:34:56.810Z,101181.94
2023-05-21T07:36:58.415Z,101183.63
2023-05-21T07:39:00.596Z,101173.53
2023-05-21T07:41:02.232Z,101181.47
2023-05-21T07:43:03.870Z,101173.44
2023-05-21T07:45:06.284Z,101172.56
2023-05-21T07:47:07.898Z,101174.16
2023-05-21T07:49:16.388Z,101175.00
2023-05-21T07:51:18.157Z,101175.97
2023-05-21T07:53:20.059Z,101175.38
2023-05-21T07:55:21.950Z,101179.00
2023-05-21T07:57:23.820Z,101167.53
2023-05-21T07:59:25.932Z,101171.22
2023-05-21T08:01:29.568Z,101167.69
2023-05-21T08:03:31.726Z,101171.94
2023-05-21T08:05:33.412Z,101175.38
2023-05-21T08:07:35.025Z,101175.25
2023-05-21T08:09:36.782Z,101176.09
2023-05-21T08:11:38.464Z,101173.44
2023-05-21T08:13:40.037Z,101169.91
2023-05-21T08:15:41.809Z,101163.78
2023-05-21T08:17:43.441Z,101166.44
2023-05-21T08:19:45.184Z,101159.66
2023-05-21T08:21:47.646Z,101157.09
2023-05-21T08:23:49.373Z,101164.66
2023-05-21T08:25:50.984Z,101164.53
2023-05-21T08:27:52.660Z,101167.09
2023-05-21T08:29:54.386Z,101160.03
2023-05-21T08:31:56.411Z,101153.69
2023-05-21T08:33:58.134Z,101151.16
2023-05-21T08:36:00.356Z,101142.84
2023-05-21T08:38:02.112Z,101147.22
2023-05-21T08:40:04.434Z,101147.22
2023-05-21T08:42:37.372Z,101150.50
2023-05-21T08:44:44.453Z,101149.50
2023-05-21T08:46:49.936Z,101153.44
2023-05-21T08:48:55.100Z,101152.72
2023-05-21T08:50:56.769Z,101146.63
2023-05-21T08:52:59.135Z,101148.31
2023-05-21T08:55:02.352Z,101152.97
2023-05-21T08:57:04.376Z,101152.31
2023-05-21T08:59:06.208Z,101150.31
2023-05-21T09:01:08.208Z,101146.63
2023-05-21T09:03:11.655Z,101159.19
2023-05-21T09:05:15.244Z,101150.31
2023-05-21T09:07:17.162Z,101147.63
2023-05-21T09:09:26.199Z,101151.16
2023-05-21T09:11:28.964Z,101149.31
2023-05-21T09:13:32.703Z,101146.97
2023-05-21T09:15:34.542Z,101146.63
2023-05-21T09:17:36.888Z,101144.09
2023-05-21T09:19:39.142Z,101142.25
2023-05-21T09:21:40.810Z,101149.44
2023-05-21T09:23:42.578Z,101138.00
2023-05-21T09:25:49.196Z,101150.03
2023-05-21T09:27:51.303Z,101148.09
2023-05-21T09:29:53.124Z,101151.47
2023-05-21T09:31:55.015Z,101149.53
2023-05-21T09:33:56.778Z,101141.84
2023-05-21T09:35:58.615Z,101145.03
2023-05-21T09:38:00.392Z,101142.47
2023-05-21T09:40:02.041Z,101149.44
2023-05-21T09:42:03.855Z,101152.72
2023-05-21T09:44:05.744Z,101156.09
2023-05-21T09:46:07.374Z,101146.13
2023-05-21T09:48:08.986Z,101141.38
2023-05-21T09:50:11.794Z,101144.03
2023-05-21T09:52:13.424Z,101151.50
2023-05-21T09:54:15.137Z,101147.97
2023-05-21T09:56:18.961Z,101138.78
2023-05-21T09:58:22.461Z,101136.00
2023-05-21T10:00:27.681Z,101134.16
2023-05-21T10:02:31.547Z,101140.97
2023-05-21T10:04:33.513Z,101130.25
2023-05-21T10:06:38.190Z,101132.81
2023-05-21T10:08:43.767Z,101125.75
2023-05-21T10:10:48.532Z,101119.69
2023-05-21T10:13:00.741Z,101121.13
2023-05-21T10:15:08.792Z,101120.84
2023-05-21T10:17:16.274Z,101115.50
2023-05-21T10:19:18.236Z,101114.75
2023-05-21T10:21:23.039Z,101111.25
2023-05-21T10:23:24.889Z,101118.31
2023-05-21T10:25:26.617Z,101108.56
2023-05-21T10:27:31.995Z,101110.13
2023-05-21T10:29:35.285Z,101118.06
2023-05-21T10:31:38.813Z,101121.00
2023-05-21T10:33:42.192Z,101116.34
2023-05-21T10:35:45.384Z,101114.25
2023-05-21T10:37:47.318Z,101114.84
2023-05-21T10:39:50.492Z,101113.88
2023-05-21T10:42:14.360Z,101108.63
2023-05-21T10:44:30.349Z,101110.47
2023-05-21T10:46:50.616Z,101108.63
2023-05-21T10:49:25.384Z,101108.38
2023-05-21T10:51:30.486Z,101109.22
2023-05-21T10:53:56.902Z,101108.25
2023-05-21T10:56:12.550Z,101099.50
2023-05-21T10:58:21.762Z,101111.06
2023-05-21T11:00:25.113Z,101105.59
2023-05-21T11:02:27.513Z,101103.59
2023-05-21T11:04:29.680Z,101094.47
2023-05-21T11:06:31.329Z,101090.78
2023-05-21T11:08:36.020Z,101095.03
2023-05-21T11:10:44.425Z,101100.28
2023-05-21T11:13:10.684Z,101096.88
2023-05-21T11:15:16.284Z,101098.56
2023-05-21T11:17:37.543Z,101088.56
2023-05-21T11:19:43.963Z,101091.41
2023-05-21T11:21:51.068Z,101086.75
2023-05-21T11:23:53.598Z,101078.59
2023-05-21T11:26:02.211Z,101083.81
2023-05-21T11:28:09.428Z,101088.31
2023-05-21T11:30:20.554Z,101100.72
2023-05-21T11:32:24.221Z,101088.06
2023-05-21T11:34:28.708Z,101086.94
2023-05-21T11:36:30.605Z,101092.84
2023-05-21T11:38:32.935Z,101084.78
2023-05-21T11:40:35.865Z,101086.22
2023-05-21T11:42:42.542Z,101077.91
2023-05-21T11:44:45.902Z,101076.81
2023-05-21T11:46:48.687Z,101076.66
2023-05-21T11:48:50.989Z,101080.91
2023-05-21T11:50:53.240Z,101072.75
2023-05-21T11:52:54.931Z,101076.28
2023-05-21T11:54:57.439Z,101078.13
2023-05-21T11:56:59.647Z,101074.19
2023-05-21T11:59:02.785Z,101072.19
2023-05-21T12:01:04.484Z,101066.00
2023-05-21T12:03:07.295Z,101066.84
2023-05-21T12:05:10.181Z,101057.72
2023-05-21T12:07:13.357Z,101069.28
2023-05-21T12:09:15.218Z,101061.25
2023-05-21T12:11:17.005Z,101057.72
2023-05-21T12:13:18.957Z,101063.66
2023-05-21T12:15:20.840Z,101067.19
2023-05-21T12:17:26.958Z,101075.38
2023-05-21T12:19:29.166Z,101068.06
2023-05-21T12:21:31.547Z,101070.75
2023-05-21T12:23:33.356Z,101068.75
2023-05-21T12:25:35.032Z,101061.69
2023-05-21T12:27:37.153Z,101068.75
2023-05-21T12:29:40.432Z,101065.09
2023-05-21T12:31:49.298Z,101064.13
2023-05-21T12:33:51.444Z,101061.28
2023-05-21T12:35:53.565Z,101071.31
2023-05-21T12:37:55.257Z,101065.69
2023-05-21T12:39:59.474Z,101052.28
2023-05-21T12:42:02.174Z,101049.44
2023-05-21T12:44:05.930Z,101050.16
2023-05-21T12:46:07.561Z,101046.50
2023-05-21T12:48:09.438Z,101050.03
2023-05-21T12:50:12.318Z,101049.06
2023-05-21T12:52:15.464Z,101042.69
2023-05-21T12:54:17.374Z,101041.69
2023-05-21T12:56:18.991Z,101050.47
2023-05-21T12:58:22.261Z,101052.88
2023-05-21T13:00:24.229Z,101050.06
2023-05-21T13:02:38.484Z,101055.56
2023-05-21T13:04:40.235Z,101049.38
2023-05-21T13:06:45.623Z,101051.22
2023-05-21T13:08:47.296Z,101043.44
2023-05-21T13:10:48.990Z,101045.69
2023-05-21T13:12:50.600Z,101051.06
2023-05-21T13:14:54.627Z,101050.78
2023-05-21T13:16:56.374Z,101054.19
2023-05-21T13:18:58.135Z,101058.41
2023-05-21T13:20:59.886Z,101048.56
2023-05-21T13:23:03.515Z,101050.50
2023-05-21T13:25:07.656Z,101054.88
2023-05-21T13:27:09.353Z,101047.69
2023-05-21T13:29:14.480Z,101040.19
2023-05-21T13:31:16.273Z,101047.28
2023-05-21T13:33:18.175Z,101041.78
2023-05-21T13:35:20.279Z,101039.81
2023-05-21T13:37:21.954Z,101044.47
2023-05-21T13:39:27.640Z,101035.16
2023-05-21T13:41:32.154Z,101038.69
2023-05-21T13:43:33.873Z,101044.06
2023-05-21T13:45:35.788Z,101043.06
2023-05-21T13:47:40.281Z,101036.59
2023-05-21T13:49:42.590Z,101048.00
2023-05-21T13:51:44.377Z,101042.53
2023-05-21T13:53:46.049Z,101039.00
2023-05-21T13:55:47.635Z,101041.53
2023-05-21T13:57:49.272Z,101040.84
2023-05-21T13:59:50.877Z,101035.31
2023-05-21T14:01:52.711Z,101045.06
2023-05-21T14:03:54.757Z,101039.84
2023-05-21T14:05:57.537Z,101040.69
2023-05-21T14:07:59.216Z,101034.19
2023-05-21T14:10:01.519Z,101033.19
2023-05-21T14:12:06.234Z,101035.63
2023-05-21T14:14:08.267Z,101031.09
2023-05-21T14:16:09.994Z,101032.94
2023-05-21T14:18:12.323Z,101032.94
2023-05-21T14:20:14.243Z,101041.69
2023-05-21T14:22:15.839Z,101037.44
2023-05-21T14:24:17.507Z,101031.94
2023-05-21T14:26:19.522Z,101034.63
2023-05-21T14:28:21.087Z,101035.34
2023-05-21T14:30:22.784Z,101038.88
2023-05-21T14:32:24.610Z,101046.06
2023-05-21T14:34:26.365Z,101040.72
2023-05-21T14:36:28.035Z,101035.91
2023-05-21T14:38:29.633Z,101038.59
2023-05-21T14:40:31.302Z,101030.53
2023-05-21T14:42:33.338Z,101029.53
2023-05-21T14:44:34.977Z,101031.09
2023-05-21T14:46:36.824Z,101036.47
2023-05-21T14:48:38.598Z,101030.41
2023-05-21T14:50:40.515Z,101036.75
2023-05-21T14:52:43.152Z,101027.72
2023-05-21T14:54:44.824Z,101032.09
2023-05-21T14:56:46.432Z,101020.28
2023-05-21T14:58:48.268Z,101027.50
2023-05-21T15:00:49.865Z,101029.03
2023-05-21T15:02:51.655Z,101020.84
2023-05-21T15:04:53.377Z,101022.41
2023-05-21T15:06:54.979Z,101026.78
2023-05-21T15:08:56.595Z,101030.19
2023-05-21T15:10:58.388Z,101019.56
2023-05-21T15:13:00.002Z,101017.16
2023-05-21T15:15:01.685Z,101018.00
2023-05-21T15:17:03.523Z,101016.88
2023-05-21T15:19:05.377Z,101017.88
2023-05-21T15:21:07.167Z,101017.88
2023-05-21T15:23:16.718Z,101019.56
2023-05-21T15:25:20.081Z,101022.97
2023-05-21T15:27:21.984Z,101019.28
2023-05-21T15:29:23.584Z,101021.84
2023-05-21T15:31:25.928Z,101027.22
2023-05-21T15:33:27.603Z,101022.69
2023-05-21T15:35:29.326Z,101025.22
2023-05-21T15:37:32.540Z,101020.69
2023-05-21T15:39:34.197Z,101020.97
2023-05-21T15:41:38.790Z,101020.28
2023-05-21T15:43:42.073Z,101023.25
2023-05-21T15:45:43.731Z,101021.41
2023-05-21T15:47:45.436Z,101023.94
2023-05-21T15:49:47.106Z,101026.63
2023-05-21T15:51:48.958Z,101026.78
2023-05-21T15:53:50.645Z,101031.88
2023-05-21T15:55:52.322Z,101027.34
2023-05-21T15:57:54.076Z,101027.22
2023-05-21T15:59:55.773Z,101024.53
2023-05-21T16:01:57.540Z,101025.38
2023-05-21T16:03:59.140Z,101026.06
2023-05-21T16:06:00.913Z,101021.84
2023-05-21T16:08:02.611Z,101021.84
2023-05-21T16:10:04.560Z,101022.81
2023-05-21T16:12:06.494Z,101024.66
2023-05-21T16:14:08.134Z,101029.91
2023-05-21T16:16:09.807Z,101024.66
2023-05-21T16:18:11.668Z,101027.78
2023-05-21T16:20:13.635Z,101016.31
2023-05-21T16:22:15.536Z,101019.00
2023-05-21T16:24:17.352Z,101021.53
2023-05-21T16:26:18.947Z,101026.91
2023-05-21T16:28:21.071Z,101028.63
2023-05-21T16:30:22.690Z,101024.81
2023-05-21T16:32:24.546Z,101027.34
2023-05-21T16:34:26.286Z,101029.03
2023-05-21T16:36:28.176Z,101030.75
2023-05-21T16:38:29.957Z,101030.59
2023-05-21T16:40:31.612Z,101027.91
2023-05-21T16:42:33.289Z,101033.28
2023-05-21T16:44:36.944Z,101023.38
2023-05-21T16:46:38.837Z,101032.16
2023-05-21T16:48:42.580Z,101028.75
2023-05-21T16:50:44.427Z,101034.28
2023-05-21T16:52:46.125Z,101035.97
2023-05-21T16:54:48.982Z,101039.50
2023-05-21T16:56:50.675Z,101044.03
2023-05-21T16:58:52.451Z,101042.34
2023-05-21T17:00:54.104Z,101034.41
2023-05-21T17:02:55.883Z,101035.13
2023-05-21T17:04:58.215Z,101035.84
2023-05-21T17:06:59.868Z,101036.69
2023-05-21T17:09:01.963Z,101037.66
2023-05-21T17:11:04.866Z,101040.34
2023-05-21T17:13:20.723Z,101028.63
2023-05-21T17:15:23.612Z,101032.16
2023-05-21T17:17:25.405Z,101028.47
2023-05-21T17:19:27.194Z,101029.59
2023-05-21T17:21:29.048Z,101029.59
2023-05-21T17:23:30.790Z,101040.22
2023-05-21T17:25:34.423Z,101039.38
2023-05-21T17:27:36.386Z,101036.69
2023-05-21T17:29:38.041Z,101035.69
2023-05-21T17:31:39.696Z,101041.06
2023-05-21T17:33:41.772Z,101043.03
2023-05-21T17:35:43.459Z,101038.53
2023-05-21T17:37:45.426Z,101044.31
2023-05-21T17:39:47.298Z,101041.50
2023-05-21T17:41:49.277Z,101043.91
2023-05-21T17:43:51.064Z,101037.38
2023-05-21T17:45:52.717Z,101044.59
2023-05-21T17:47:55.276Z,101051.53
2023-05-21T17:49:57.707Z,101045.31
2023-05-21T17:52:00.159Z,101054.09
2023-05-21T17:54:02.006Z,101058.59
2023-05-21T17:56:03.647Z,101049.84
2023-05-21T17:58:09.945Z,101056.06
2023-05-21T18:00:12.294Z,101063.25
2023-05-21T18:02:13.998Z,101063.53
2023-05-21T18:04:15.722Z,101060.84
2023-05-21T18:06:17.510Z,101068.75
2023-05-21T18:08:19.493Z,101071.31
2023-05-21T18:10:21.358Z,101067.63
2023-05-21T18:12:22.895Z,101068.63
2023-05-21T18:14:24.581Z,101068.63
2023-05-21T18:16:26.343Z,101070.31
2023-05-21T18:18:28.015Z,101073.16
2023-05-21T18:20:30.150Z,101067.63
2023-05-21T18:22:31.948Z,101075.69
2023-05-21T18:24:33.720Z,101070.31
2023-05-21T18:26:35.403Z,101074.69
2023-05-21T18:28:37.064Z,101075.56
2023-05-21T18:30:39.098Z,101080.94
2023-05-21T18:32:40.919Z,101083.47
2023-05-21T18:34:45.709Z,101083.63
2023-05-21T18:36:48.140Z,101085.44
2023-05-21T18:38:49.846Z,101086.44
2023-05-21T18:40:51.734Z,101080.94
2023-05-21T18:42:53.502Z,101083.75
2023-05-21T18:44:55.184Z,101089.97
2023-05-21T18:46:57.774Z,101089.97
2023-05-21T18:49:00.135Z,101087.44
2023-05-21T18:51:01.962Z,101100.03
2023-05-21T18:53:05.486Z,101092.94
2023-05-21T18:55:07.455Z,101097.72
2023-05-21T18:57:09.132Z,101096.88
2023-05-21T18:59:10.700Z,101103.09
2023-05-21T19:01:12.595Z,101106.78
2023-05-21T19:03:14.250Z,101103.25
2023-05-21T19:05:16.336Z,101108.47
2023-05-21T19:07:17.958Z,101109.31
2023-05-21T19:09:19.628Z,101108.47
2023-05-21T19:11:23.548Z,101106.78
2023-05-21T19:13:26.358Z,101110.16
2023-05-21T19:15:27.942Z,101112.16
2023-05-21T19:17:29.603Z,101116.53
2023-05-21T19:19:31.401Z,101122.75
2023-05-21T19:21:33.339Z,101120.91
2023-05-21T19:23:44.834Z,101115.53
2023-05-21T19:25:53.206Z,101121.78
2023-05-21T19:27:54.889Z,101117.38
2023-05-21T19:29:56.578Z,101118.38
2023-05-21T19:31:59.159Z,101114.69
2023-05-21T19:34:01.094Z,101121.78
2023-05-21T19:36:03.212Z,101126.28
2023-05-21T19:38:05.694Z,101136.88
2023-05-21T19:40:08.010Z,101124.47
2023-05-21T19:42:10.210Z,101117.38
2023-05-21T19:44:11.947Z,101127.16
2023-05-21T19:46:16.583Z,101123.75
2023-05-21T19:48:19.880Z,101131.78
2023-05-21T19:50:21.792Z,101133.34
2023-05-21T19:52:23.764Z,101132.38
2023-05-21T19:54:25.536Z,101128.84
2023-05-21T19:56:27.340Z,101132.38
2023-05-21T19:58:30.250Z,101134.22
2023-05-21T20:00:31.908Z,101127.00
2023-05-21T20:02:34.650Z,101137.88
2023-05-21T20:04:36.497Z,101139.56
2023-05-21T20:06:38.531Z,101150.31
2023-05-21T20:08:40.133Z,101146.78
2023-05-21T20:10:42.049Z,101154.00
2023-05-21T20:12:43.743Z,101147.75
2023-05-21T20:14:47.441Z,101152.00
2023-05-21T20:16:49.544Z,101151.31
2023-05-21T20:18:56.682Z,101151.31
2023-05-21T20:20:58.636Z,101162.91
2023-05-21T20:23:03.218Z,101155.69
2023-05-21T20:25:06.532Z,101152.28
2023-05-21T20:27:08.200Z,101162.91
2023-05-21T20:29:09.921Z,101166.28
2023-05-21T20:31:11.837Z,101170.97
2023-05-21T20:33:13.533Z,101172.78
2023-05-21T20:35:15.191Z,101171.81
2023-05-21T20:37:16.784Z,101170.81
2023-05-21T20:39:21.907Z,101173.50
2023-05-21T20:41:25.259Z,101178.88
2023-05-21T20:43:27.093Z,101173.50
2023-05-21T20:45:33.456Z,101177.16
2023-05-21T20:47:36.181Z,101179.72
2023-05-21T20:49:40.539Z,101184.22
2023-05-21T20:51:42.403Z,101184.22
2023-05-21T20:53:44.170Z,101176.91
2023-05-21T20:55:46.962Z,101171.53
2023-05-21T20:57:49.041Z,101167.84
2023-05-21T20:59:53.566Z,101180.31
2023-05-21T21:01:55.324Z,101176.75
2023-05-21T21:03:57.314Z,101179.59
2023-05-21T21:06:01.046Z,101176.06
2023-05-21T21:08:05.652Z,101177.03
2023-05-21T21:10:07.900Z,101184.38
2023-05-21T21:12:24.495Z,101183.53
2023-05-21T21:14:29.016Z,101186.34
2023-05-21T21:16:32.078Z,101173.06
2023-05-21T21:18:33.845Z,101177.44
2023-05-21T21:20:35.519Z,101175.75
2023-05-21T21:22:37.429Z,101169.38
2023-05-21T21:24:39.068Z,101174.75
2023-05-21T21:26:40.743Z,101173.91
2023-05-21T21:28:42.304Z,101171.22
2023-05-21T21:30:44.944Z,101179.13
2023-05-21T21:32:47.528Z,101178.72
2023-05-21T21:34:49.155Z,101185.78
2023-05-21T21:36:51.280Z,101184.94
2023-05-21T21:38:52.932Z,101178.13
2023-05-21T21:40:54.686Z,101181.66
2023-05-21T21:42:56.349Z,101181.50
2023-05-21T21:44:57.968Z,101185.91
2023-05-21T21:46:59.652Z,101184.09
2023-05-21T21:49:01.483Z,101177.88
2023-05-21T21:51:03.273Z,101190.41
2023-05-21T21:53:05.935Z,101178.72
2023-05-21T21:55:11.161Z,101181.50
2023-05-21T21:57:12.777Z,101183.50
2023-05-21T21:59:15.023Z,101180.09
2023-05-21T22:01:16.792Z,101190.84
2023-05-21T22:03:18.893Z,101180.25
2023-05-21T22:05:20.903Z,101190.97
2023-05-21T22:07:22.579Z,101193.53
2023-05-21T22:09:24.320Z,101181.94
2023-05-21T22:11:26.981Z,101188.56
2023-05-21T22:13:29.997Z,101188.66
2023-05-21T22:15:32.384Z,101189.41
2023-05-21T22:17:34.632Z,101191.25
2023-05-21T22:19:36.353Z,101195.63
2023-05-21T22:21:38.225Z,101180.25
2023-05-21T22:23:40.056Z,101193.66
2023-05-21T22:25:41.652Z,101181.09
2023-05-21T22:27:43.805Z,101181.09
2023-05-21T22:29:45.396Z,101180.25
2023-05-21T22:31:47.035Z,101184.75
2023-05-21T22:33:48.608Z,101185.63
2023-05-21T22:35:50.726Z,101193.66
2023-05-21T22:37:52.369Z,101191.09
2023-05-21T22:39:53.970Z,101193.78
2023-05-21T22:41:55.632Z,101198.16
2023-05-21T22:43:57.256Z,101199.03
2023-05-21T22:45:58.891Z,101191.94
2023-05-21T22:48:06.697Z,101193.94
2023-05-21T22:50:10.071Z,101192.09
2023-05-21T22:52:11.867Z,101195.63
2023-05-21T22:54:13.730Z,101196.63
2023-05-21T22:56:15.602Z,101203.81
2023-05-21T22:58:17.852Z,101199.53
2023-05-21T23:00:19.658Z,101197.81
2023-05-21T23:02:21.397Z,101203.19
2023-05-21T23:04:35.666Z,101196.97
2023-05-21T23:06:42.590Z,101198.97
2023-05-21T23:08:44.346Z,101197.38
2023-05-21T23:10:46.209Z,101203.59
2023-05-21T23:12:47.848Z,101200.91
2023-05-21T23:14:49.522Z,101199.09
2023-05-21T23:16:51.288Z,101199.94
2023-05-21T23:18:54.412Z,101205.28
2023-05-21T23:20:57.113Z,101197.38
2023-05-21T23:22:58.822Z,101200.06